Flight Track Log - Related Links

Times and Time Zones

All times are in EDT time to prevent confusion due to time zone crossing. See the UAL137 flight status page for this flight to view local times or setup timezone preferences in your user account.

Time Position Orientation Groundspeed Altitude Reporting Facility
EDT Latitude Longitude Course Direction KTS MPH feet Rate Location/Type
Tue 05:16:15 PM 13.5110 144.7829 37° Northeast  Level FlightAware Approximate
Tue 05:17:15 PM 13.6151 144.7177 136° Southeast  Level FlightAware Approximate
Tue 05:18:19 PM 13.5333 144.8000 334° Northwest 230 265 3,800  Level Guam Center
Tue 05:19:20 PM 13.6000 144.7667 324° Northwest 280 322 7,500 3,471 Climbing Guam Center
Tue 05:20:20 PM 13.6667 144.7167 339° North 300 345 10,800 3,250 Climbing Guam Center
Tue 05:21:20 PM 13.7500 144.6833 330° Northwest 340 391 14,000 3,100 Climbing Guam Center
Tue 05:22:20 PM 13.8333 144.6333 322° Northwest 360 414 17,000 2,926 Climbing Guam Center
Tue 05:23:21 PM 13.9167 144.5667 334° Northwest 380 437 19,900 2,826 Climbing Guam Center
Tue 05:24:21 PM 14.0167 144.5167 327° Northwest 380 437 22,700 2,579 Climbing Guam Center
Tue 05:25:22 PM 14.1167 144.4500 316° Northwest 400 460 25,100 2,231 Climbing Guam Center
Tue 05:26:22 PM 14.2000 144.3667 321° Northwest 410 472 27,200 2,000 Climbing Guam Center
Tue 05:27:22 PM 14.3000 144.2833 339° North 420 483 29,100 1,750 Climbing Guam Center
Tue 05:28:22 PM 14.3833 144.2500 337° Northwest 430 495 30,700 1,835 Climbing Guam Center
Tue 05:29:23 PM 14.5000 144.2000 337° Northwest 440 506 32,800 2,083 Climbing Guam Center
Tue 05:30:23 PM 14.6167 144.1500 334° Northwest 440 506 34,900 1,934 Climbing Guam Center
Tue 05:31:24 PM 14.7167 144.1000 334° Northwest 430 495 36,700 1,686 Climbing Guam Center
Tue 05:32:24 PM 14.8167 144.0500 325° Northwest 410 472 38,300 1,400 Climbing Guam Center
Tue 05:33:24 PM 14.9333 143.9667 334° Northwest 410 472 39,500 843 Climbing Guam Center
Tue 05:34:25 PM 15.0333 143.9167 338° Northwest 420 483 40,000 248 Climbing Guam Center
Tue 05:35:25 PM 15.1500 143.8667 334° Northwest 420 483 40,000  Level Guam Center
Tue 05:57:02 PM 17.2000 142.8167 331° Northwest 409 471 40,000  Level Oakland Oceanic (ODAPS)
Tue 06:04:15 PM 18.1274 142.2863 331° Northwest 409 471 40,000  Level FlightAware Transoceanic
Tue 06:05:15 PM 18.2276 142.2286 331° Northwest 409 471 40,000  Level FlightAware Transoceanic
Tue 06:06:15 PM 18.3277 142.1709 331° Northwest 409 471 40,000  Level FlightAware Transoceanic
Tue 06:07:15 PM 18.4279 142.1130 331° Northwest 409 471 40,000  Level FlightAware Transoceanic
Tue 06:08:15 PM 18.5280 142.0552 331° Northwest 409 471 40,000  Level FlightAware Transoceanic
Tue 06:09:15 PM 18.6281 141.9972 331° Northwest 409 471 40,000  Level FlightAware Transoceanic
Tue 06:10:15 PM 18.7282 141.9392 331° Northwest 409 471 40,000  Level FlightAware Transoceanic
Tue 06:11:15 PM 18.8282 141.8811 331° Northwest 409 471 40,000  Level FlightAware Transoceanic
Tue 06:12:15 PM 18.9283 141.8230 331° Northwest 409 471 40,000  Level FlightAware Transoceanic
Tue 06:13:15 PM 19.0283 141.7648 331° Northwest 409 471 40,000  Level FlightAware Transoceanic
Tue 06:14:15 PM 19.1283 141.7065 331° Northwest 409 471 40,000  Level FlightAware Transoceanic
Tue 06:15:15 PM 19.2283 141.6481 331° Northwest 409 471 40,000  Level FlightAware Transoceanic
Tue 06:16:15 PM 19.3283 141.5897 331° Northwest 409 471 40,000  Level FlightAware Transoceanic
Tue 06:17:15 PM 19.4282 141.5312 331° Northwest 409 471 40,000  Level FlightAware Transoceanic
Tue 06:18:15 PM 19.5282 141.4726 331° Northwest 409 471 40,000  Level FlightAware Transoceanic
Tue 06:19:15 PM 19.6281 141.4140 331° Northwest 409 471 40,000  Level FlightAware Transoceanic
Tue 06:20:15 PM 19.7280 141.3553 331° Northwest 409 471 40,000  Level FlightAware Transoceanic
Tue 06:21:15 PM 19.8279 141.2965 331° Northwest 409 471 40,000  Level FlightAware Transoceanic
Tue 06:22:15 PM 19.9277 141.2376 331° Northwest 409 471 40,000  Level FlightAware Transoceanic
Tue 06:23:15 PM 20.0276 141.1787 331° Northwest 409 471 40,000  Level FlightAware Transoceanic
Tue 06:24:15 PM 20.1274 141.1197 331° Northwest 409 471 40,000  Level FlightAware Transoceanic
Tue 06:25:15 PM 20.2272 141.0606 331° Northwest 409 471 40,000  Level FlightAware Transoceanic
Tue 06:26:15 PM 20.3270 141.0014 331° Northwest 409 471 40,000  Level FlightAware Transoceanic
Tue 06:27:15 PM 20.4268 140.9422 331° Northwest 409 471 40,000  Level FlightAware Transoceanic
Tue 06:28:15 PM 20.5265 140.8828 331° Northwest 409 471 40,000  Level FlightAware Transoceanic
Tue 06:29:15 PM 20.6262 140.8234 331° Northwest 409 471 40,000  Level FlightAware Transoceanic
Tue 06:30:15 PM 20.7259 140.7640 331° Northwest 409 471 40,000  Level FlightAware Transoceanic
Tue 06:31:15 PM 20.8256 140.7044 331° Northwest 409 471 40,000  Level FlightAware Transoceanic
Tue 06:32:15 PM 20.9253 140.6448 334° Northwest 409 471 40,000  Level FlightAware Transoceanic
Tue 06:33:15 PM 21.0295 140.5898 342° North 409 471 40,000  Level FlightAware Transoceanic
Tue 06:34:15 PM 21.1473 140.5488 342° North 409 471 40,000  Level FlightAware Transoceanic
Tue 06:35:15 PM 21.2651 140.5077 342° North 409 471 40,000  Level FlightAware Transoceanic
Tue 06:36:15 PM 21.3829 140.4666 342° North 409 471 40,000  Level FlightAware Transoceanic
Tue 06:37:15 PM 21.5007 140.4253 342° North 409 471 40,000  Level FlightAware Transoceanic
Tue 06:38:15 PM 21.6185 140.3841 342° North 409 471 40,000  Level FlightAware Transoceanic
Tue 06:39:15 PM 21.7362 140.3427 342° North 409 471 40,000  Level FlightAware Transoceanic
Tue 06:40:15 PM 21.8540 140.3013 342° North 409 471 40,000  Level FlightAware Transoceanic
Tue 06:41:15 PM 21.9718 140.2599 342° North 409 471 40,000  Level FlightAware Transoceanic
Tue 06:42:15 PM 22.0895 140.2183 342° North 409 471 40,000  Level FlightAware Transoceanic
Tue 06:43:15 PM 22.2072 140.1767 342° North 409 471 40,000  Level FlightAware Transoceanic
Tue 06:44:15 PM 22.3249 140.1350 342° North 409 471 40,000  Level FlightAware Transoceanic
Tue 06:45:15 PM 22.4426 140.0933 342° North 409 471 40,000  Level FlightAware Transoceanic
Tue 06:46:15 PM 22.5603 140.0514 342° North 409 471 40,000  Level FlightAware Transoceanic
Tue 06:47:15 PM 22.6780 140.0096 342° North 409 471 40,000  Level FlightAware Transoceanic
Tue 06:48:15 PM 22.7957 139.9676 342° North 409 471 40,000  Level FlightAware Transoceanic
Tue 06:49:15 PM 22.9134 139.9255 342° North 409 471 40,000  Level FlightAware Transoceanic
Tue 06:50:15 PM 23.0310 139.8834 342° North 409 471 40,000  Level FlightAware Transoceanic
Tue 06:51:15 PM 23.1487 139.8412 342° North 409 471 40,000  Level FlightAware Transoceanic
Tue 06:52:15 PM 23.2663 139.7990 342° North 409 471 40,000  Level FlightAware Transoceanic
Tue 06:53:15 PM 23.3839 139.7567 342° North 409 471 40,000  Level FlightAware Transoceanic
Tue 06:54:15 PM 23.5015 139.7142 342° North 409 471 40,000  Level FlightAware Transoceanic
Tue 06:55:15 PM 23.6191 139.6718 342° North 409 471 40,000  Level FlightAware Transoceanic
Tue 06:56:15 PM 23.7367 139.6292 342° North 409 471 40,000  Level FlightAware Transoceanic
Tue 06:57:15 PM 23.8543 139.5865 342° North 409 471 40,000  Level FlightAware Transoceanic
Tue 06:58:15 PM 23.9718 139.5438 342° North 409 471 40,000  Level FlightAware Transoceanic
Tue 06:59:15 PM 24.0894 139.5010 342° North 409 471 40,000  Level FlightAware Transoceanic
Tue 07:00:15 PM 24.2069 139.4582 342° North 409 471 40,000  Level FlightAware Transoceanic
Tue 07:01:15 PM 24.3245 139.4152 342° North 409 471 40,000  Level FlightAware Transoceanic
Tue 07:02:15 PM 24.4420 139.3722 342° North 409 471 40,000  Level FlightAware Transoceanic
Tue 07:03:15 PM 24.5595 139.3291 342° North 409 471 40,000  Level FlightAware Transoceanic
Tue 07:04:15 PM 24.6770 139.2859 342° North 409 471 40,000  Level FlightAware Transoceanic
Tue 07:05:15 PM 24.7944 139.2426 341° North 409 471 40,000  Level FlightAware Transoceanic
Tue 07:06:15 PM 24.9119 139.1992 334° Northwest 409 471 40,000  Level FlightAware Transoceanic
Tue 07:07:15 PM 25.0129 139.1453 341° North  Level FlightAware Approximate
Tue 07:08:15 PM 25.1190 139.1045 341° North  Level FlightAware Approximate
Tue 07:09:15 PM 25.2251 139.0637 341° North  Level FlightAware Approximate
Tue 07:10:15 PM 25.3312 139.0228 341° North  Level FlightAware Approximate
Tue 07:11:15 PM 25.4372 138.9818 341° North  Level FlightAware Approximate
Tue 07:12:15 PM 25.5433 138.9408 341° North  Level FlightAware Approximate
Tue 07:13:15 PM 25.6488 138.8998 341° North  Level FlightAware Approximate
Tue 07:14:15 PM 25.7544 138.8588 341° North  Level FlightAware Approximate
Tue 07:15:15 PM 25.8599 138.8178 341° North  Level FlightAware Approximate
Tue 07:16:15 PM 25.9654 138.7766 341° North  Level FlightAware Approximate
Tue 07:17:15 PM 26.0709 138.7354 341° North  Level FlightAware Approximate
Tue 07:18:15 PM 26.1763 138.6941 341° North  Level FlightAware Approximate
Tue 07:19:15 PM 26.2818 138.6528 341° North  Level FlightAware Approximate
Tue 07:20:15 PM 26.3872 138.6113 341° North  Level FlightAware Approximate
Tue 07:21:15 PM 26.4927 138.5698 341° North  Level FlightAware Approximate
Tue 07:22:15 PM 26.5981 138.5282 341° North  Level FlightAware Approximate
Tue 07:23:15 PM 26.7035 138.4865 341° North  Level FlightAware Approximate
Tue 07:24:15 PM 26.8089 138.4448 341° North  Level FlightAware Approximate
Tue 07:25:15 PM 26.9143 138.4030 340° North  Level FlightAware Approximate
Tue 07:26:15 PM 27.0197 138.3611 340° North  Level FlightAware Approximate
Tue 07:27:15 PM 27.1251 138.3191 340° North  Level FlightAware Approximate
Tue 07:28:15 PM 27.2304 138.2770 340° North  Level FlightAware Approximate
Tue 07:29:15 PM 27.3358 138.2349 340° North  Level FlightAware Approximate
Tue 07:30:15 PM 27.4411 138.1927 340° North  Level FlightAware Approximate
Tue 07:31:15 PM 27.5464 138.1504 340° North  Level FlightAware Approximate
Tue 07:32:15 PM 27.6517 138.1080 340° North  Level FlightAware Approximate
Tue 07:33:15 PM 27.7570 138.0655 340° North  Level FlightAware Approximate
Tue 07:34:15 PM 27.8623 138.0230 340° North  Level FlightAware Approximate
Tue 07:35:15 PM 27.9676 137.9803 340° North  Level FlightAware Approximate
Tue 07:36:15 PM 28.0728 137.9376 340° North  Level FlightAware Approximate
Tue 07:37:15 PM 28.1780 137.8948 340° North  Level FlightAware Approximate
Tue 07:38:15 PM 28.2833 137.8520 340° North  Level FlightAware Approximate
Tue 07:39:15 PM 28.3885 137.8090 340° North  Level FlightAware Approximate
Tue 07:40:15 PM 28.4937 137.7659 340° North  Level FlightAware Approximate
Tue 07:41:15 PM 28.5989 137.7228 340° North  Level FlightAware Approximate
Tue 07:42:15 PM 28.7040 137.6796 340° North  Level FlightAware Approximate
Tue 07:43:15 PM 28.8092 137.6363 340° North  Level FlightAware Approximate
Tue 07:44:15 PM 28.9143 137.5929 340° North  Level FlightAware Approximate
Tue 07:45:15 PM 29.0194 137.5494 340° North  Level FlightAware Approximate
Tue 07:46:15 PM 29.1246 137.5058 340° North  Level FlightAware Approximate
Tue 07:47:15 PM 29.2297 137.4622 340° North  Level FlightAware Approximate
Tue 07:48:15 PM 29.3347 137.4184 340° North  Level FlightAware Approximate
Tue 07:49:15 PM 29.4398 137.3746 340° North  Level FlightAware Approximate
Tue 07:50:15 PM 29.5449 137.3306 340° North  Level FlightAware Approximate
Tue 07:51:15 PM 29.6499 137.2866 340° North  Level FlightAware Approximate
Tue 07:52:15 PM 29.7549 137.2425 340° North  Level FlightAware Approximate
Tue 07:53:15 PM 29.8600 137.1983 340° North  Level FlightAware Approximate
Tue 07:54:15 PM 29.9650 137.1540 338° Northwest  Level FlightAware Approximate
Tue 07:55:15 PM 30.0688 137.1061 338° Northwest  Level FlightAware Approximate
Tue 07:56:15 PM 30.1726 137.0582 338° Northwest  Level FlightAware Approximate
Tue 07:57:15 PM 30.2764 137.0101 338° Northwest  Level FlightAware Approximate
Tue 07:58:15 PM 30.3797 136.9622 338° Northwest  Level FlightAware Approximate
Tue 07:59:15 PM 30.4830 136.9141 336° Northwest  Level FlightAware Approximate
Tue 08:00:15 PM 30.5848 136.8622 336° Northwest  Level FlightAware Approximate
Tue 08:01:15 PM 30.6866 136.8101 336° Northwest  Level FlightAware Approximate
Tue 08:02:15 PM 30.7885 136.7579 336° Northwest  Level FlightAware Approximate
Tue 08:03:15 PM 30.8902 136.7056 336° Northwest  Level FlightAware Approximate
Tue 08:04:15 PM 30.9920 136.6531 336° Northwest  Level FlightAware Approximate
Tue 08:05:15 PM 31.0938 136.6006 336° Northwest  Level FlightAware Approximate
Tue 08:06:15 PM 31.1955 136.5479 336° Northwest  Level FlightAware Approximate
Tue 08:07:15 PM 31.2972 136.4952 341° North  Level FlightAware Approximate
Tue 08:08:15 PM 31.4022 136.4521 341° North  Level FlightAware Approximate
Tue 08:09:15 PM 31.5072 136.4090 341° North  Level FlightAware Approximate
Tue 08:10:15 PM 31.6122 136.3658 341° North  Level FlightAware Approximate
Tue 08:11:15 PM 31.7172 136.3225 341° North  Level FlightAware Approximate
Tue 08:12:15 PM 31.8222 136.2791 341° North  Level FlightAware Approximate
Tue 08:13:15 PM 31.9271 136.2356 341° North  Level FlightAware Approximate
Tue 08:14:15 PM 32.0320 136.1920 341° North  Level FlightAware Approximate
Tue 08:15:15 PM 32.1370 136.1482 341° North  Level FlightAware Approximate
Tue 08:16:15 PM 32.2419 136.1044 341° North  Level FlightAware Approximate
Tue 08:17:15 PM 32.3467 136.0605 340° North  Level FlightAware Approximate
Tue 08:18:15 PM 32.4516 136.0165 340° North  Level FlightAware Approximate
Tue 08:19:15 PM 32.5565 135.9724 340° North  Level FlightAware Approximate
Tue 08:20:15 PM 32.6613 135.9281 340° North  Level FlightAware Approximate
Tue 08:21:15 PM 32.7661 135.8838 340° North  Level FlightAware Approximate
Tue 08:22:15 PM 32.8709 135.8394 345° North  Level FlightAware Approximate
Tue 08:23:15 PM 32.9771 135.8062 322° Northwest  Level FlightAware Approximate
Tue 08:24:15 PM 33.0652 135.7251 341° North  Level FlightAware Approximate
Tue 08:25:15 PM 33.1706 135.6826 297° West  Level FlightAware Approximate
Tue 08:26:15 PM 33.2198 135.5681 319° Northwest  Level FlightAware Approximate
Tue 08:27:15 PM 33.3031 135.4803 320° Northwest  Level FlightAware Approximate
Tue 08:28:15 PM 33.3885 135.3949 319° Northwest  Level FlightAware Approximate
Tue 08:29:15 PM 33.4730 135.3082 354° North  Level FlightAware Approximate
Tue 08:30:15 PM 33.5837 135.2946 354° North  Level FlightAware Approximate
Tue 08:31:15 PM 33.6944 135.2811 354° North  Level FlightAware Approximate
Tue 08:32:15 PM 33.8051 135.2675 354° North  Level FlightAware Approximate
Tue 08:33:15 PM 33.9157 135.2538 354° North  Level FlightAware Approximate
Tue 08:34:15 PM 34.0264 135.2402 354° North  Level FlightAware Approximate
Tue 08:35:15 PM 34.1371 135.2265 354° North  Level FlightAware Approximate
Tue 08:36:15 PM 34.2478 135.2127 356° North  Level FlightAware Approximate
Tue 08:37:15 PM 34.3579 135.2039 25° Northeast  Level FlightAware Approximate
Tue 08:38:15 PM 34.4583 135.2620 206° Southwest  Level Estimated
Tue 08:39:15 PM 34.3185 135.1811 24° Northeast  Level FlightAware Approximate
Tue 08:40:15 PM 34.4167 135.2333 40° Northeast  Level FlightAware Approximate
Tue 08:41:15 PM 34.5022 135.3197 220° Southwest  Level Estimated
Tue 08:42:15 PM 34.4167 135.2333 40° Northeast  Level Estimated
Tue 08:43:15 PM 34.5009 135.3185 220° Southwest  Level Estimated
Tue 08:44:15 PM 34.4167 135.2333 40° Northeast  Level Estimated
Tue 08:45:15 PM 34.5009 135.3185 220° Southwest  Level Estimated
Tue 08:46:15 PM 34.4167 135.2333 220° Southwest  Level FlightAware Approximate

Login

Don't have an account? Register now (free) for customized features, flight alerts, and more!